createdAt,value
2023-01-15T00:02:50.186Z,98315.75
2023-01-15T00:07:52.297Z,98313.97
2023-01-15T00:12:53.927Z,98302.19
2023-01-15T00:17:55.615Z,98312.75
2023-01-15T00:22:57.348Z,98311.72
2023-01-15T00:28:01.560Z,98292.47
2023-01-15T00:33:03.346Z,98281.63
2023-01-15T00:38:04.998Z,98269.72
2023-01-15T00:43:06.753Z,98274.88
2023-01-15T00:48:09.193Z,98272.53
2023-01-15T00:53:10.818Z,98263.09
2023-01-15T00:58:12.440Z,98254.22
2023-01-15T01:03:14.113Z,98262.91
2023-01-15T01:08:16.640Z,98242.72
2023-01-15T01:13:18.287Z,98239.19
2023-01-15T01:18:20.036Z,98237.75
2023-01-15T01:23:24.445Z,98222.66
2023-01-15T01:28:26.105Z,98222.81
2023-01-15T01:33:27.932Z,98228.88
2023-01-15T01:38:29.601Z,98225.47
2023-01-15T01:43:31.769Z,98217.75
2023-01-15T01:48:34.535Z,98215.78
2023-01-15T01:53:36.200Z,98198.63
2023-01-15T01:58:38.932Z,98184.38
2023-01-15T02:03:40.694Z,98182.25
2023-01-15T02:08:43.053Z,98181.75
2023-01-15T02:13:57.405Z,98171.16
2023-01-15T02:19:36.133Z,98170.50
2023-01-15T02:24:49.844Z,98166.03
2023-01-15T02:30:04.547Z,98160.66
2023-01-15T02:35:13.088Z,98144.88
2023-01-15T02:40:16.207Z,98135.31
2023-01-15T02:45:24.460Z,98126.78
2023-01-15T02:50:32.011Z,98121.88
2023-01-15T02:55:43.843Z,98113.75
2023-01-15T03:00:49.815Z,98108.88
2023-01-15T03:06:00.499Z,98102.84
2023-01-15T03:11:10.004Z,98096.72
2023-01-15T03:16:38.508Z,98085.56
2023-01-15T03:21:59.957Z,98074.19
2023-01-15T03:27:02.088Z,98073.78
2023-01-15T03:32:04.989Z,98064.69
2023-01-15T03:37:06.856Z,98046.94
2023-01-15T03:42:20.323Z,98043.63
2023-01-15T03:47:42.547Z,98036.47
2023-01-15T03:53:02.834Z,98019.28
2023-01-15T03:58:16.248Z,98009.84
2023-01-15T04:03:20.641Z,97990.59
2023-01-15T04:08:23.411Z,97992.50
2023-01-15T04:13:25.668Z,97983.56
2023-01-15T04:18:27.833Z,97980.75
2023-01-15T04:23:29.494Z,97973.94
2023-01-15T04:28:31.201Z,97981.34
2023-01-15T04:33:32.916Z,97976.94
2023-01-15T04:38:34.997Z,97976.41
2023-01-15T04:43:55.300Z,97966.06
2023-01-15T04:48:56.970Z,97961.94
2023-01-15T04:53:59.416Z,97955.47
2023-01-15T04:59:02.765Z,97954.34
2023-01-15T05:04:05.051Z,97956.06
2023-01-15T05:09:07.237Z,97944.69
2023-01-15T05:14:09.406Z,97936.47
2023-01-15T05:19:11.165Z,97941.41
2023-01-15T05:24:17.720Z,97935.34
2023-01-15T05:29:19.430Z,97926.50
2023-01-15T05:34:21.156Z,97921.72
2023-01-15T05:39:22.825Z,97923.41
2023-01-15T05:44:27.154Z,97910.00
2023-01-15T05:49:32.855Z,97905.63
2023-01-15T05:54:35.919Z,97891.72
2023-01-15T05:59:43.436Z,97897.38
2023-01-15T06:04:50.075Z,97896.25
2023-01-15T06:09:52.240Z,97893.06
2023-01-15T06:14:53.925Z,97886.38
2023-01-15T06:19:55.622Z,97890.59
2023-01-15T06:24:57.293Z,97890.72
2023-01-15T06:29:59.146Z,97885.56
2023-01-15T06:35:00.779Z,97880.31
2023-01-15T06:40:02.478Z,97882.38
2023-01-15T06:45:26.047Z,97886.75
2023-01-15T06:50:28.337Z,97877.03
2023-01-15T06:55:30.078Z,97869.81
2023-01-15T07:00:31.919Z,97869.88
2023-01-15T07:05:33.676Z,97870.91
2023-01-15T07:10:36.304Z,97873.66
2023-01-15T07:15:39.819Z,97877.09
2023-01-15T07:20:42.133Z,97869.41
2023-01-15T07:25:43.804Z,97859.22
2023-01-15T07:30:45.986Z,97848.72
2023-01-15T07:35:47.744Z,97848.56
2023-01-15T07:41:09.763Z,97858.09
2023-01-15T07:46:30.326Z,97859.72
2023-01-15T07:51:31.992Z,97862.94
2023-01-15T07:56:33.724Z,97847.03
2023-01-15T08:01:35.454Z,97856.03
2023-01-15T08:06:37.650Z,97842.94
2023-01-15T08:11:58.178Z,97829.34
2023-01-15T08:16:59.880Z,97846.66
2023-01-15T08:22:01.953Z,97837.13
2023-01-15T08:27:04.187Z,97843.66
2023-01-15T08:32:06.106Z,97821.75
2023-01-15T08:37:07.930Z,97825.81
2023-01-15T08:42:09.765Z,97821.44
2023-01-15T08:47:11.441Z,97806.66
2023-01-15T08:52:13.289Z,97806.44
2023-01-15T08:57:14.948Z,97798.69
2023-01-15T09:02:17.807Z,97812.47
2023-01-15T09:07:19.615Z,97815.53
2023-01-15T09:12:24.901Z,97802.44
2023-01-15T09:17:26.669Z,97800.44
2023-01-15T09:22:31.238Z,97787.22
2023-01-15T09:27:34.465Z,97777.28
2023-01-15T09:32:36.113Z,97770.94
2023-01-15T09:37:37.856Z,97758.50
2023-01-15T09:42:46.216Z,97752.25
2023-01-15T09:48:32.305Z,97741.28
2023-01-15T09:53:46.221Z,97724.22
2023-01-15T09:58:48.067Z,97722.19
2023-01-15T10:04:31.362Z,97722.09
2023-01-15T10:09:37.781Z,97712.25
2023-01-15T10:15:02.405Z,97710.50
2023-01-15T10:20:04.380Z,97695.75
2023-01-15T10:25:14.985Z,97687.72
2023-01-15T10:30:22.710Z,97666.53
2023-01-15T10:35:27.166Z,97665.56
2023-01-15T10:40:58.100Z,97666.81
2023-01-15T10:46:11.889Z,97658.09
2023-01-15T10:51:28.902Z,97659.34
2023-01-15T10:56:49.091Z,97654.63
2023-01-15T11:01:54.275Z,97644.13
2023-01-15T11:06:56.128Z,97645.69
2023-01-15T11:12:20.528Z,97632.75
2023-01-15T11:17:43.292Z,97639.00
2023-01-15T11:22:45.343Z,97622.69
2023-01-15T11:27:49.896Z,97620.84
2023-01-15T11:32:57.009Z,97613.47
2023-01-15T11:38:13.629Z,97602.38
2023-01-15T11:43:38.258Z,97588.59
2023-01-15T11:49:06.476Z,97584.81
2023-01-15T11:54:12.500Z,97566.25
2023-01-15T11:59:19.921Z,97562.31
2023-01-15T12:04:34.783Z,97571.78
2023-01-15T12:09:45.451Z,97558.03
2023-01-15T12:15:06.944Z,97549.22
2023-01-15T12:20:37.975Z,97538.66
2023-01-15T12:26:17.836Z,97547.59
2023-01-15T12:32:07.401Z,97521.00
2023-01-15T12:37:21.229Z,97520.25
2023-01-15T12:42:44.076Z,97526.69
2023-01-15T12:48:07.069Z,97520.00
2023-01-15T12:53:11.822Z,97524.53
2023-01-15T12:58:36.520Z,97505.59
2023-01-15T13:03:51.580Z,97508.25
2023-01-15T13:09:03.423Z,97515.34
2023-01-15T13:14:16.693Z,97515.47
2023-01-15T13:19:27.554Z,97507.53
2023-01-15T13:24:56.470Z,97499.84
2023-01-15T13:30:19.813Z,97500.09
2023-01-15T13:35:36.242Z,97496.16
2023-01-15T13:40:50.717Z,97492.88
2023-01-15T13:45:52.662Z,97503.91
2023-01-15T13:50:58.993Z,97499.16
2023-01-15T13:56:06.212Z,97498.31
2023-01-15T14:01:23.135Z,97499.66
2023-01-15T14:06:45.801Z,97500.09
2023-01-15T14:12:08.135Z,97497.22
2023-01-15T14:17:31.676Z,97502.28
2023-01-15T14:22:55.531Z,97509.69
2023-01-15T14:28:02.578Z,97513.69
2023-01-15T14:33:19.491Z,97521.13
2023-01-15T14:38:27.093Z,97531.34
2023-01-15T14:43:33.531Z,97534.63
2023-01-15T14:48:39.428Z,97538.78
2023-01-15T14:53:48.903Z,97539.56
2023-01-15T14:59:08.610Z,97539.09
2023-01-15T15:04:40.827Z,97557.94
2023-01-15T15:09:46.712Z,97568.38
2023-01-15T15:15:27.241Z,97558.47
2023-01-15T15:20:33.378Z,97557.81
2023-01-15T15:25:39.588Z,97553.22
2023-01-15T15:30:45.590Z,97556.03
2023-01-15T15:35:52.492Z,97562.78
2023-01-15T15:40:59.240Z,97572.56
2023-01-15T15:46:39.406Z,97582.16
2023-01-15T15:51:49.127Z,97589.72
2023-01-15T15:56:58.126Z,97590.94
2023-01-15T16:02:36.486Z,97599.13
2023-01-15T16:07:38.583Z,97599.38
2023-01-15T16:13:09.981Z,97607.50
2023-01-15T16:18:41.250Z,97614.31
2023-01-15T16:23:46.603Z,97624.41
2023-01-15T16:28:56.100Z,97633.75
2023-01-15T16:33:59.897Z,97642.28
2023-01-15T16:39:03.276Z,97659.81
2023-01-15T16:44:07.794Z,97666.13
2023-01-15T16:49:22.514Z,97661.03
2023-01-15T16:54:31.169Z,97667.84
2023-01-15T16:59:34.461Z,97667.34
2023-01-15T17:04:41.476Z,97689.50
2023-01-15T17:10:01.548Z,97682.41
2023-01-15T17:15:15.997Z,97687.13
2023-01-15T17:20:20.565Z,97698.75
2023-01-15T17:25:24.340Z,97720.59
2023-01-15T17:30:35.177Z,97727.25
2023-01-15T17:35:41.653Z,97721.03
2023-01-15T17:40:44.632Z,97734.75
2023-01-15T17:45:47.627Z,97735.53
2023-01-15T17:50:51.471Z,97731.66
2023-01-15T17:56:12.172Z,97735.78
2023-01-15T18:01:40.113Z,97756.19
2023-01-15T18:06:48.790Z,97752.78
2023-01-15T18:11:54.049Z,97759.75
2023-01-15T18:16:56.652Z,97758.41
2023-01-15T18:22:01.178Z,97763.72
2023-01-15T18:27:04.458Z,97770.81
2023-01-15T18:32:10.052Z,97764.72
2023-01-15T18:37:13.778Z,97780.00
2023-01-15T18:42:16.402Z,97786.56
2023-01-15T18:47:18.928Z,97791.47
2023-01-15T18:52:40.497Z,97807.81
2023-01-15T18:57:43.826Z,97806.16
2023-01-15T19:02:47.594Z,97819.22
2023-01-15T19:07:50.395Z,97819.38
2023-01-15T19:12:52.548Z,97815.88
2023-01-15T19:18:13.747Z,97812.53
2023-01-15T19:23:17.286Z,97813.34
2023-01-15T19:28:21.881Z,97815.16
2023-01-15T19:33:24.978Z,97818.63
2023-01-15T19:38:29.604Z,97812.13
2023-01-15T19:43:50.525Z,97795.34
2023-01-15T19:49:11.379Z,97817.66
2023-01-15T19:54:13.912Z,97817.97
2023-01-15T19:59:16.594Z,97794.28
2023-01-15T20:04:19.231Z,97801.59
2023-01-15T20:09:22.057Z,97813.81
2023-01-15T20:14:24.660Z,97840.91
2023-01-15T20:19:27.308Z,97840.69
2023-01-15T20:24:30.033Z,97827.25
2023-01-15T20:29:32.697Z,97822.56
2023-01-15T20:34:41.939Z,97830.91
2023-01-15T20:39:44.770Z,97827.56
2023-01-15T20:44:56.695Z,97844.63
2023-01-15T20:49:59.081Z,97851.66
2023-01-15T20:55:02.373Z,97849.19
2023-01-15T21:00:06.175Z,97833.81
2023-01-15T21:05:08.685Z,97814.69
2023-01-15T21:10:14.317Z,97823.84
2023-01-15T21:15:16.654Z,97831.88
2023-01-15T21:20:18.414Z,97827.63
2023-01-15T21:25:20.459Z,97822.63
2023-01-15T21:30:26.046Z,97826.78
2023-01-15T21:35:27.987Z,97831.97
2023-01-15T21:40:29.675Z,97828.56
2023-01-15T21:45:31.987Z,97844.19
2023-01-15T21:50:33.862Z,97826.88
2023-01-15T21:55:35.534Z,97824.31
2023-01-15T22:00:37.884Z,97832.88
2023-01-15T22:05:39.581Z,97833.81
2023-01-15T22:10:41.208Z,97835.69
2023-01-15T22:15:42.801Z,97823.84
2023-01-15T22:20:45.428Z,97827.81
2023-01-15T22:25:47.225Z,97831.81
2023-01-15T22:30:48.974Z,97828.28
2023-01-15T22:35:58.750Z,97833.44
2023-01-15T22:41:00.392Z,97840.63
2023-01-15T22:46:13.171Z,97844.63
2023-01-15T22:51:14.883Z,97843.97
2023-01-15T22:56:16.543Z,97822.31
2023-01-15T23:01:18.631Z,97825.88
2023-01-15T23:06:22.905Z,97832.22
2023-01-15T23:11:25.070Z,97827.78
2023-01-15T23:16:26.717Z,97836.69
2023-01-15T23:21:28.631Z,97811.09
2023-01-15T23:26:32.265Z,97803.88
2023-01-15T23:31:34.180Z,97801.25
2023-01-15T23:36:35.836Z,97790.69
2023-01-15T23:41:56.181Z,97786.88
2023-01-15T23:46:57.832Z,97787.00
2023-01-15T23:52:00.164Z,97781.91
2023-01-15T23:57:01.934Z,97774.88
